Time;durP1;ratioP1;P1;durP2;ratioP2;P2;SDS_P1;SDS_P2;PMS_P1;PMS_P2;Temp;Humidity;BMP_temperature;BMP_pressure;BME280_temperature;BME280_humidity;BME280_pressure;Samples;Min_cycle;Max_cycle;Signal;HPM_P1;HPM_P2
2023/08/21 00:02:04;;;;;;;6.32;5.80;;;;;;;;;;5083011;28;20392;-84
2023/08/21 00:04:30;;;;;;;5.85;5.35;;;;;;;;;;5098971;28;20463;-84
2023/08/21 00:06:56;;;;;;;6.60;6.10;;;;;;;;;;5086050;28;20414;-84
2023/08/21 00:09:22;;;;;;;5.93;5.33;;;;;;;;;;5097027;28;20851;-84
2023/08/21 00:11:48;;;;;;;5.80;5.30;;;;;;;;;;5085812;28;20447;-84
2023/08/21 00:14:14;;;;;;;5.80;5.30;;;;;;;;;;5099390;28;20461;-84
2023/08/21 00:16:40;;;;;;;6.03;5.53;;;;;;;;;;5099295;28;20381;-84
2023/08/21 00:19:06;;;;;;;6.17;5.67;;;;;;;;;;5098846;28;20381;-84
2023/08/21 00:21:32;;;;;;;5.77;5.37;;;;;;;;;;5085015;28;20378;-84
2023/08/21 00:23:58;;;;;;;6.20;5.70;;;;;;;;;;5088773;28;20411;-84
2023/08/21 00:26:24;;;;;;;5.57;5.10;;;;;;;;;;5092943;28;20390;-84
2023/08/21 00:28:50;;;;;;;5.60;5.13;;;;;;;;;;5098516;28;20447;-84
2023/08/21 00:31:16;;;;;;;5.63;5.22;;;;;;;;;;5089624;28;20423;-83
2023/08/21 00:33:42;;;;;;;5.60;5.20;;;;;;;;;;5093456;28;20374;-84
2023/08/21 00:36:09;;;;;;;5.90;5.40;;;;;;;;;;5094268;28;20439;-84
2023/08/21 00:38:35;;;;;;;5.90;5.40;;;;;;;;;;5084266;28;20381;-84
2023/08/21 00:41:01;;;;;;;5.60;5.20;;;;;;;;;;5084759;28;20386;-84
2023/08/21 00:43:27;;;;;;;6.03;5.53;;;;;;;;;;5095453;28;20385;-84
2023/08/21 00:45:53;;;;;;;6.13;5.63;;;;;;;;;;5098283;28;20379;-84
2023/08/21 00:48:20;;;;;;;6.25;5.75;;;;;;;;;;5098318;28;20385;-84
2023/08/21 00:50:46;;;;;;;5.88;5.38;;;;;;;;;;5098271;28;20429;-84
2023/08/21 00:53:12;;;;;;;6.30;5.80;;;;;;;;;;5098611;28;20385;-84
2023/08/21 00:55:38;;;;;;;6.00;5.50;;;;;;;;;;5098260;28;20471;-84
2023/08/21 00:58:05;;;;;;;6.18;5.60;;;;;;;;;;5079180;28;20383;-84
2023/08/21 01:00:31;;;;;;;6.15;5.65;;;;;;;;;;5094389;28;20382;-84
2023/08/21 01:02:57;;;;;;;5.93;5.43;;;;;;;;;;5098821;28;20393;-84
2023/08/21 01:05:23;;;;;;;6.25;5.75;;;;;;;;;;5096977;28;20397;-85
2023/08/21 01:07:55;;;;;;;6.00;5.50;;;;;;;;;;5085733;28;20761;-85
2023/08/21 01:10:27;;;;;;;6.03;5.63;;;;;;;;;;5088633;28;20498;-85
2023/08/21 01:13:03;;;;;;;6.20;5.80;;;;;;;;;;5095361;28;20386;-83
2023/08/21 01:15:30;;;;;;;6.07;5.57;;;;;;;;;;5098682;28;20450;-84
2023/08/21 01:17:56;;;;;;;6.03;5.45;;;;;;;;;;5098354;28;20382;-83
2023/08/21 01:20:22;;;;;;;6.10;5.55;;;;;;;;;;5098930;28;20443;-83
2023/08/21 01:22:50;;;;;;;6.20;5.70;;;;;;;;;;5083553;28;20375;-83
2023/08/21 01:25:16;;;;;;;5.82;5.38;;;;;;;;;;5091989;28;20480;-85
2023/08/21 01:27:45;;;;;;;5.95;5.55;;;;;;;;;;5091745;28;20410;-84
2023/08/21 01:30:11;;;;;;;5.97;5.57;;;;;;;;;;5084489;28;20470;-84
2023/08/21 01:33:00;;;;;;;6.05;5.45;;;;;;;;;;5099331;28;20862;-84
2023/08/21 01:35:28;;;;;;;6.05;5.53;;;;;;;;;;5086489;28;20393;-84
2023/08/21 01:37:54;;;;;;;5.82;5.43;;;;;;;;;;5083098;28;20376;-84
2023/08/21 01:40:22;;;;;;;5.82;5.32;;;;;;;;;;5091512;28;20383;-84
2023/08/21 01:42:48;;;;;;;6.15;5.65;;;;;;;;;;5078575;28;20729;-84
2023/08/21 01:45:14;;;;;;;6.20;5.60;;;;;;;;;;5092320;28;20378;-84
2023/08/21 01:47:40;;;;;;;6.28;5.68;;;;;;;;;;5093807;28;20529;-84
2023/08/21 01:50:06;;;;;;;6.07;5.57;;;;;;;;;;5090805;28;20451;-84
2023/08/21 01:52:32;;;;;;;6.03;5.53;;;;;;;;;;5093508;28;20868;-84
2023/08/21 01:54:58;;;;;;;5.80;5.40;;;;;;;;;;5100706;28;20374;-84
2023/08/21 01:57:24;;;;;;;6.20;5.70;;;;;;;;;;5094457;28;20381;-84
2023/08/21 01:59:50;;;;;;;6.32;5.82;;;;;;;;;;5097972;28;20869;-84
2023/08/21 02:02:16;;;;;;;6.38;5.90;;;;;;;;;;5096989;28;20428;-84
2023/08/21 02:04:42;;;;;;;6.00;5.60;;;;;;;;;;5087974;28;20399;-84
2023/08/21 02:07:08;;;;;;;6.13;5.63;;;;;;;;;;5079665;28;20400;-84
2023/08/21 02:09:34;;;;;;;5.70;5.30;;;;;;;;;;5082793;28;20387;-84
2023/08/21 02:12:00;;;;;;;6.30;5.70;;;;;;;;;;5086943;28;20431;-84
2023/08/21 02:14:26;;;;;;;6.40;5.80;;;;;;;;;;5095260;28;20382;-84
2023/08/21 02:16:52;;;;;;;6.40;5.82;;;;;;;;;;5087544;28;20420;-84
2023/08/21 02:19:18;;;;;;;6.43;5.93;;;;;;;;;;5082704;28;20409;-84
2023/08/21 02:21:44;;;;;;;6.25;5.75;;;;;;;;;;5091091;28;20395;-84
2023/08/21 02:24:10;;;;;;;6.30;5.90;;;;;;;;;;5088815;28;20854;-84
2023/08/21 02:26:36;;;;;;;6.00;5.60;;;;;;;;;;5097680;28;20919;-84
2023/08/21 02:29:03;;;;;;;5.85;5.40;;;;;;;;;;5087087;28;20386;-84
2023/08/21 02:31:29;;;;;;;6.47;5.82;;;;;;;;;;5088235;28;20887;-84
2023/08/21 02:33:55;;;;;;;6.40;5.90;;;;;;;;;;5088585;28;20395;-84
2023/08/21 02:36:21;;;;;;;6.50;5.90;;;;;;;;;;5090845;28;20889;-84
2023/08/21 02:38:47;;;;;;;6.97;6.30;;;;;;;;;;5076843;28;20393;-84
2023/08/21 02:41:13;;;;;;;6.72;6.22;;;;;;;;;;5083882;28;20380;-84
2023/08/21 02:43:39;;;;;;;6.60;6.18;;;;;;;;;;5080493;28;20723;-84
2023/08/21 02:46:05;;;;;;;6.47;6.00;;;;;;;;;;5089171;28;20411;-84
2023/08/21 02:48:31;;;;;;;6.80;6.15;;;;;;;;;;5071886;28;20393;-84
2023/08/21 02:50:59;;;;;;;6.10;5.70;;;;;;;;;;5076060;28;20524;-84
2023/08/21 02:53:25;;;;;;;6.68;6.07;;;;;;;;;;5092129;28;20388;-84
2023/08/21 02:55:50;;;;;;;6.10;5.50;;;;;;;;;;5086018;28;20750;-84
2023/08/21 02:58:16;;;;;;;6.35;5.95;;;;;;;;;;5093350;28;20397;-84
2023/08/21 03:00:42;;;;;;;6.80;6.30;;;;;;;;;;5085391;28;20386;-84
2023/08/21 03:03:08;;;;;;;6.45;5.93;;;;;;;;;;5100494;28;20828;-84
2023/08/21 03:05:34;;;;;;;6.82;6.10;;;;;;;;;;5068148;28;20392;-84
2023/08/21 03:08:00;;;;;;;6.30;5.88;;;;;;;;;;5099741;28;20389;-84
2023/08/21 03:10:28;;;;;;;7.32;6.63;;;;;;;;;;5088431;28;20422;-84
2023/08/21 03:12:55;;;;;;;6.43;5.82;;;;;;;;;;5082696;28;20409;-84
2023/08/21 03:15:21;;;;;;;6.07;5.60;;;;;;;;;;5100394;28;20378;-84
2023/08/21 03:17:47;;;;;;;7.33;6.57;;;;;;;;;;5099867;28;20397;-84
2023/08/21 03:20:13;;;;;;;6.37;5.87;;;;;;;;;;5100078;28;20375;-84
2023/08/21 03:22:39;;;;;;;6.53;5.93;;;;;;;;;;5099758;28;20410;-84
2023/08/21 03:25:05;;;;;;;6.33;5.80;;;;;;;;;;5100108;28;20435;-84
2023/08/21 03:27:31;;;;;;;6.30;5.90;;;;;;;;;;5088535;28;21162;-84
2023/08/21 03:30:00;;;;;;;6.43;5.88;;;;;;;;;;5097089;28;20410;-84
2023/08/21 03:32:26;;;;;;;6.73;6.23;;;;;;;;;;5099263;28;20389;-84
2023/08/21 03:34:52;;;;;;;6.60;6.10;;;;;;;;;;5099462;28;20381;-84
2023/08/21 03:37:18;;;;;;;6.20;5.80;;;;;;;;;;5074095;28;20380;-84
2023/08/21 03:39:44;;;;;;;6.72;6.22;;;;;;;;;;5093996;28;20855;-84
2023/08/21 03:42:10;;;;;;;6.70;6.13;;;;;;;;;;5091933;28;20393;-84
2023/08/21 03:44:38;;;;;;;6.65;6.15;;;;;;;;;;5092166;28;20423;-84
2023/08/21 03:47:04;;;;;;;6.78;6.18;;;;;;;;;;5100240;28;20385;-84
2023/08/21 03:49:30;;;;;;;6.75;6.15;;;;;;;;;;5083738;28;20402;-84
2023/08/21 03:51:56;;;;;;;7.35;6.55;;;;;;;;;;5089647;28;20882;-84
2023/08/21 03:54:22;;;;;;;6.43;6.03;;;;;;;;;;5084069;28;20415;-84
2023/08/21 03:56:48;;;;;;;7.13;6.43;;;;;;;;;;5091903;28;20400;-84
2023/08/21 03:59:14;;;;;;;6.78;6.18;;;;;;;;;;5099154;28;20422;-84
2023/08/21 04:01:40;;;;;;;6.80;6.20;;;;;;;;;;5099283;28;20378;-84
2023/08/21 04:04:06;;;;;;;6.97;6.40;;;;;;;;;;5099586;28;20440;-84
2023/08/21 04:06:32;;;;;;;5.93;5.50;;;;;;;;;;5099387;28;20382;-84
2023/08/21 04:08:58;;;;;;;6.10;5.70;;;;;;;;;;5098984;28;20378;-84
2023/08/21 04:11:24;;;;;;;6.82;6.25;;;;;;;;;;5084802;28;20958;-84
2023/08/21 04:13:50;;;;;;;6.70;6.10;;;;;;;;;;5097549;28;20377;-84
2023/08/21 04:16:17;;;;;;;6.40;5.90;;;;;;;;;;5099463;28;20385;-84
2023/08/21 04:18:43;;;;;;;6.97;6.40;;;;;;;;;;5098688;28;20774;-84
2023/08/21 04:21:09;;;;;;;7.00;6.40;;;;;;;;;;5099150;28;20389;-84
2023/08/21 04:23:36;;;;;;;7.18;6.60;;;;;;;;;;5092163;28;20379;-84
2023/08/21 04:26:02;;;;;;;7.00;6.47;;;;;;;;;;5092690;28;20398;-84
2023/08/21 04:28:29;;;;;;;6.75;6.25;;;;;;;;;;5085758;28;20403;-84
2023/08/21 04:30:55;;;;;;;7.40;6.80;;;;;;;;;;5098288;28;20411;-84
2023/08/21 04:33:21;;;;;;;7.40;6.80;;;;;;;;;;5087075;28;20382;-84
2023/08/21 04:35:47;;;;;;;7.30;6.60;;;;;;;;;;5099004;28;20388;-84
2023/08/21 04:38:13;;;;;;;6.80;6.20;;;;;;;;;;5087008;28;20387;-84
2023/08/21 04:40:39;;;;;;;6.93;6.40;;;;;;;;;;5098574;28;20378;-84
2023/08/21 04:43:05;;;;;;;7.05;6.50;;;;;;;;;;5098615;28;20386;-84
2023/08/21 04:45:31;;;;;;;7.72;7.18;;;;;;;;;;5098377;28;20402;-84
2023/08/21 04:47:57;;;;;;;7.30;6.50;;;;;;;;;;5098141;28;20904;-84
2023/08/21 04:50:23;;;;;;;7.80;6.85;;;;;;;;;;5083503;28;20414;-84
2023/08/21 04:52:50;;;;;;;7.22;6.72;;;;;;;;;;5084624;28;20444;-84
2023/08/21 04:55:16;;;;;;;7.50;6.80;;;;;;;;;;5085529;28;20387;-85
2023/08/21 04:57:42;;;;;;;6.57;6.07;;;;;;;;;;5091114;28;20390;-85
2023/08/21 05:00:09;;;;;;;7.47;6.78;;;;;;;;;;5077000;28;20476;-84
2023/08/21 05:02:35;;;;;;;8.02;7.28;;;;;;;;;;5099279;28;20370;-84
2023/08/21 05:05:01;;;;;;;6.90;6.35;;;;;;;;;;5098542;28;20386;-84
2023/08/21 05:07:27;;;;;;;7.50;6.80;;;;;;;;;;5062290;28;20426;-83
2023/08/21 05:09:53;;;;;;;7.28;6.78;;;;;;;;;;5081995;28;20733;-84
2023/08/21 05:12:19;;;;;;;6.65;6.15;;;;;;;;;;5090310;28;20469;-84
2023/08/21 05:14:45;;;;;;;6.75;6.25;;;;;;;;;;5083915;28;20377;-84
2023/08/21 05:17:11;;;;;;;7.10;6.50;;;;;;;;;;5098594;28;20397;-84
2023/08/21 05:19:37;;;;;;;6.68;6.00;;;;;;;;;;5098601;28;20414;-84
2023/08/21 05:22:03;;;;;;;7.28;6.68;;;;;;;;;;5099023;28;20882;-84
2023/08/21 05:24:29;;;;;;;7.80;7.20;;;;;;;;;;5098236;28;20374;-84
2023/08/21 05:26:55;;;;;;;6.93;6.32;;;;;;;;;;5097756;28;20494;-84
2023/08/21 05:29:21;;;;;;;7.10;6.40;;;;;;;;;;5098682;28;20439;-84
2023/08/21 05:31:47;;;;;;;8.63;7.87;;;;;;;;;;5079392;28;20469;-84
2023/08/21 05:34:13;;;;;;;9.30;8.47;;;;;;;;;;5088809;28;20712;-84
2023/08/21 05:36:40;;;;;;;9.27;8.45;;;;;;;;;;5095617;28;20382;-84
2023/08/21 05:39:06;;;;;;;9.90;9.10;;;;;;;;;;5086723;28;20377;-84
2023/08/21 05:41:32;;;;;;;8.52;7.82;;;;;;;;;;5098395;28;20397;-84
2023/08/21 05:43:58;;;;;;;8.15;7.47;;;;;;;;;;5098780;28;20374;-84
2023/08/21 05:46:24;;;;;;;9.33;8.60;;;;;;;;;;5085652;28;20780;-84
2023/08/21 05:48:50;;;;;;;7.73;7.13;;;;;;;;;;5097748;28;20382;-84
2023/08/21 05:51:16;;;;;;;7.77;7.17;;;;;;;;;;5088687;28;20446;-84
2023/08/21 05:53:42;;;;;;;7.53;6.93;;;;;;;;;;5095339;28;20413;-84
2023/08/21 05:56:08;;;;;;;7.57;6.88;;;;;;;;;;5087950;28;20395;-84
2023/08/21 05:58:34;;;;;;;8.00;7.45;;;;;;;;;;5091409;28;20378;-84
2023/08/21 06:01:00;;;;;;;8.73;7.93;;;;;;;;;;5083629;28;20401;-84
2023/08/21 06:03:26;;;;;;;8.07;7.43;;;;;;;;;;5078940;28;20392;-84
2023/08/21 06:05:52;;;;;;;8.73;7.90;;;;;;;;;;5089248;28;20445;-84
2023/08/21 06:08:18;;;;;;;8.45;7.65;;;;;;;;;;5087060;28;20395;-84
2023/08/21 06:10:44;;;;;;;9.60;8.65;;;;;;;;;;5098607;28;20413;-84
2023/08/21 06:13:10;;;;;;;9.00;8.30;;;;;;;;;;5085462;28;20770;-84
2023/08/21 06:15:36;;;;;;;8.52;7.63;;;;;;;;;;5097099;28;20390;-84
2023/08/21 06:18:02;;;;;;;8.10;7.40;;;;;;;;;;5082565;28;20392;-84
2023/08/21 06:20:28;;;;;;;9.23;8.32;;;;;;;;;;5087378;28;20421;-84
2023/08/21 06:22:54;;;;;;;8.05;7.45;;;;;;;;;;5073632;28;20774;-84
2023/08/21 06:25:20;;;;;;;8.70;7.80;;;;;;;;;;5097023;28;20382;-84
2023/08/21 06:27:46;;;;;;;10.35;9.38;;;;;;;;;;5087261;28;20398;-83
2023/08/21 06:30:13;;;;;;;10.00;8.93;;;;;;;;;;5085501;28;20405;-84
2023/08/21 06:32:39;;;;;;;9.43;8.63;;;;;;;;;;5102103;28;20389;-84
2023/08/21 06:35:05;;;;;;;8.40;7.70;;;;;;;;;;5083418;28;20383;-84
2023/08/21 06:37:31;;;;;;;9.55;8.65;;;;;;;;;;5090754;28;20398;-84
2023/08/21 06:39:57;;;;;;;10.23;9.20;;;;;;;;;;5096972;28;20642;-84
2023/08/21 06:42:23;;;;;;;14.60;12.50;;;;;;;;;;5100378;28;20401;-84
2023/08/21 06:44:50;;;;;;;13.43;12.13;;;;;;;;;;5100548;28;20434;-84
2023/08/21 06:47:16;;;;;;;14.82;12.90;;;;;;;;;;5094666;28;20418;-84
2023/08/21 06:49:42;;;;;;;14.43;12.60;;;;;;;;;;5092742;28;20378;-84
2023/08/21 06:52:08;;;;;;;14.88;12.70;;;;;;;;;;5100659;28;20775;-84
2023/08/21 06:54:34;;;;;;;13.27;11.98;;;;;;;;;;5100889;28;20389;-84
2023/08/21 06:57:00;;;;;;;13.43;12.02;;;;;;;;;;5091421;28;20404;-84
2023/08/21 06:59:26;;;;;;;12.68;11.43;;;;;;;;;;5079704;28;20414;-84
2023/08/21 07:01:52;;;;;;;12.48;10.35;;;;;;;;;;5093903;28;20865;-84
2023/08/21 07:04:18;;;;;;;13.15;10.55;;;;;;;;;;5087242;28;20414;-84
2023/08/21 07:06:44;;;;;;;11.50;10.35;;;;;;;;;;5079302;28;20383;-84
2023/08/21 07:09:10;;;;;;;12.05;10.98;;;;;;;;;;5084838;28;20428;-84
2023/08/21 07:11:36;;;;;;;14.38;12.15;;;;;;;;;;5092013;28;20739;-84
2023/08/21 07:14:02;;;;;;;12.40;11.15;;;;;;;;;;5096039;28;20389;-84
2023/08/21 07:16:28;;;;;;;17.02;13.40;;;;;;;;;;5086463;28;20385;-84
2023/08/21 07:18:54;;;;;;;14.18;12.02;;;;;;;;;;5089844;28;20414;-84
2023/08/21 07:21:21;;;;;;;12.70;11.40;;;;;;;;;;5096611;28;20854;-84
2023/08/21 07:23:47;;;;;;;13.00;10.65;;;;;;;;;;5099870;28;20481;-84
2023/08/21 07:26:13;;;;;;;10.80;9.70;;;;;;;;;;5100691;28;20474;-84
2023/08/21 07:28:39;;;;;;;11.03;9.80;;;;;;;;;;5099495;28;20739;-84
2023/08/21 07:31:04;;;;;;;13.40;9.93;;;;;;;;;;5099814;28;20421;-84
2023/08/21 07:33:30;;;;;;;12.17;9.80;;;;;;;;;;5085383;28;20388;-84
2023/08/21 07:36:04;;;;;;;12.80;11.52;;;;;;;;;;5071176;28;20398;-84
2023/08/21 07:38:30;;;;;;;13.25;11.07;;;;;;;;;;5093398;28;20386;-83
2023/08/21 07:41:03;;;;;;;14.00;11.20;;;;;;;;;;5089445;28;20469;-84
2023/08/21 07:43:29;;;;;;;10.02;9.02;;;;;;;;;;5096975;28;20407;-83
2023/08/21 07:45:55;;;;;;;11.23;8.65;;;;;;;;;;5088027;28;20887;-84
2023/08/21 07:48:21;;;;;;;8.82;7.28;;;;;;;;;;5066928;28;20384;-84
2023/08/21 07:50:53;;;;;;;7.82;7.00;;;;;;;;;;5093284;28;20411;-84
2023/08/21 07:53:19;;;;;;;9.90;7.97;;;;;;;;;;5094938;28;20388;-84
2023/08/21 07:55:46;;;;;;;9.32;6.97;;;;;;;;;;5085641;28;20389;-84
2023/08/21 07:58:12;;;;;;;11.52;7.30;;;;;;;;;;5078833;28;20987;-84
2023/08/21 08:00:39;;;;;;;9.83;8.30;;;;;;;;;;5088338;28;20923;-84
2023/08/21 08:03:05;;;;;;;10.05;7.50;;;;;;;;;;5088432;28;20406;-84
2023/08/21 08:05:31;;;;;;;7.68;7.03;;;;;;;;;;5095004;28;20444;-84
2023/08/21 08:07:57;;;;;;;8.18;7.40;;;;;;;;;;5082273;28;20411;-84
2023/08/21 08:10:24;;;;;;;12.90;8.60;;;;;;;;;;5083573;28;20399;-84
2023/08/21 08:12:50;;;;;;;10.00;8.02;;;;;;;;;;5090912;28;20853;-84
2023/08/21 08:15:16;;;;;;;7.22;6.53;;;;;;;;;;5086519;28;20385;-84
2023/08/21 08:17:42;;;;;;;7.68;6.88;;;;;;;;;;5098616;28;20385;-84
2023/08/21 08:20:09;;;;;;;8.07;7.05;;;;;;;;;;5095853;28;20382;-84
2023/08/21 08:22:35;;;;;;;7.80;6.10;;;;;;;;;;5091310;28;20382;-84
2023/08/21 08:25:01;;;;;;;8.48;7.53;;;;;;;;;;5084271;28;20435;-84
2023/08/21 08:27:26;;;;;;;16.67;11.50;;;;;;;;;;5097890;28;20414;-84
2023/08/21 08:29:52;;;;;;;13.43;10.02;;;;;;;;;;5095520;28;20407;-84
2023/08/21 08:32:18;;;;;;;10.50;9.30;;;;;;;;;;5090145;28;20395;-84
2023/08/21 08:34:46;;;;;;;11.10;10.00;;;;;;;;;;5093215;28;20383;-84
2023/08/21 08:37:12;;;;;;;12.30;10.88;;;;;;;;;;5098384;28;20386;-84
2023/08/21 08:39:38;;;;;;;12.02;10.57;;;;;;;;;;5098129;28;20378;-84
2023/08/21 08:42:06;;;;;;;16.40;12.90;;;;;;;;;;5091864;28;20386;-84
2023/08/21 08:44:33;;;;;;;17.38;12.63;;;;;;;;;;5098157;28;20393;-84
2023/08/21 08:47:00;;;;;;;16.15;12.82;;;;;;;;;;5098876;28;20414;-84
2023/08/21 08:49:25;;;;;;;15.52;12.48;;;;;;;;;;5098651;28;20393;-85
2023/08/21 08:51:53;;;;;;;12.90;10.65;;;;;;;;;;5097239;28;20421;-84
2023/08/21 08:54:20;;;;;;;12.93;10.23;;;;;;;;;;5088647;28;20384;-84
2023/08/21 08:56:46;;;;;;;11.70;9.77;;;;;;;;;;5078220;28;20386;-84
2023/08/21 08:59:14;;;;;;;10.38;8.43;;;;;;;;;;5098314;28;20782;-84
2023/08/21 09:01:40;;;;;;;13.57;10.15;;;;;;;;;;5098761;28;20414;-84
2023/08/21 09:04:06;;;;;;;16.87;10.47;;;;;;;;;;5098384;28;20381;-84
2023/08/21 09:06:33;;;;;;;12.27;9.97;;;;;;;;;;5094372;28;20397;-83
2023/08/21 09:08:59;;;;;;;12.00;9.60;;;;;;;;;;5079286;28;20833;-84
2023/08/21 09:11:25;;;;;;;11.48;10.00;;;;;;;;;;5091471;28;20469;-84
2023/08/21 09:13:52;;;;;;;16.00;11.52;;;;;;;;;;5088711;28;20961;-84
2023/08/21 09:16:19;;;;;;;15.40;11.25;;;;;;;;;;5082961;28;20401;-84
2023/08/21 09:18:53;;;;;;;13.48;10.20;;;;;;;;;;5087550;28;20432;-84
2023/08/21 09:21:20;;;;;;;9.80;7.97;;;;;;;;;;5082661;28;20437;-83
2023/08/21 09:23:46;;;;;;;8.57;7.70;;;;;;;;;;5097836;28;20382;-83
2023/08/21 09:26:20;;;;;;;8.68;7.78;;;;;;;;;;5097857;28;20847;-82
2023/08/21 09:28:46;;;;;;;9.40;8.40;;;;;;;;;;5090719;28;20379;-83
2023/08/21 09:31:12;;;;;;;11.02;8.23;;;;;;;;;;5091643;28;20409;-84
2023/08/21 09:33:38;;;;;;;8.88;7.80;;;;;;;;;;5092144;28;20878;-84
2023/08/21 09:36:04;;;;;;;10.55;7.63;;;;;;;;;;5089074;28;20408;-83
2023/08/21 09:38:30;;;;;;;8.37;7.50;;;;;;;;;;5097879;28;20374;-82
2023/08/21 09:40:56;;;;;;;7.90;6.70;;;;;;;;;;5088490;28;20445;-82
2023/08/21 09:43:23;;;;;;;8.07;6.68;;;;;;;;;;5078235;28;20387;-83
2023/08/21 09:45:52;;;;;;;7.97;6.73;;;;;;;;;;5086122;28;20439;-82
2023/08/21 09:48:18;;;;;;;11.48;8.32;;;;;;;;;;5082312;28;20384;-84
2023/08/21 09:50:45;;;;;;;10.13;9.07;;;;;;;;;;5096719;28;20406;-82
2023/08/21 09:53:11;;;;;;;11.60;9.50;;;;;;;;;;5098468;28;20420;-83
2023/08/21 09:55:39;;;;;;;9.55;8.35;;;;;;;;;;5097937;28;20566;-82
2023/08/21 09:58:05;;;;;;;7.85;5.57;;;;;;;;;;5080622;28;20388;-82
2023/08/21 10:00:35;;;;;;;6.95;5.97;;;;;;;;;;5082455;28;20456;-83
2023/08/21 10:03:03;;;;;;;8.32;6.20;;;;;;;;;;5098294;28;20374;-84
2023/08/21 10:05:29;;;;;;;5.88;5.38;;;;;;;;;;5096819;28;20447;-82
2023/08/21 10:07:56;;;;;;;6.28;5.68;;;;;;;;;;5086562;28;20454;-83
2023/08/21 10:10:22;;;;;;;7.22;5.40;;;;;;;;;;5089951;28;20437;-83
2023/08/21 10:12:49;;;;;;;7.15;5.88;;;;;;;;;;5082671;28;20733;-83
2023/08/21 10:15:15;;;;;;;6.87;6.17;;;;;;;;;;5080349;28;20476;-84
2023/08/21 10:17:42;;;;;;;7.18;6.47;;;;;;;;;;5079889;28;20391;-83
2023/08/21 10:20:09;;;;;;;8.77;6.13;;;;;;;;;;5093094;28;20393;-83
2023/08/21 10:22:49;;;;;;;6.30;5.80;;;;;;;;;;5089320;28;20382;-83
2023/08/21 10:25:22;;;;;;;8.38;5.20;;;;;;;;;;5058973;28;20388;-84
2023/08/21 10:27:52;;;;;;;6.68;5.18;;;;;;;;;;5077487;28;20466;-83
2023/08/21 10:30:22;;;;;;;6.28;5.55;;;;;;;;;;5083725;28;20425;-84
2023/08/21 10:32:49;;;;;;;10.80;6.13;;;;;;;;;;5096766;28;20390;-83
2023/08/21 10:35:18;;;;;;;6.27;5.70;;;;;;;;;;5092504;28;20439;-83
2023/08/21 10:38:02;;;;;;;7.30;5.60;;;;;;;;;;5088653;28;20393;-84
2023/08/21 10:40:29;;;;;;;9.85;7.57;;;;;;;;;;5083228;28;20377;-82
2023/08/21 10:42:54;;;;;;;8.32;5.97;;;;;;;;;;5097045;28;20708;-84
2023/08/21 10:45:20;;;;;;;7.13;6.53;;;;;;;;;;5061825;28;20391;-84
2023/08/21 10:47:49;;;;;;;7.53;5.80;;;;;;;;;;5089498;28;20390;-83
2023/08/21 10:50:15;;;;;;;9.60;7.00;;;;;;;;;;5064497;28;20403;-84
2023/08/21 10:52:44;;;;;;;6.53;5.22;;;;;;;;;;5097102;28;20428;-84
2023/08/21 10:55:11;;;;;;;5.50;4.97;;;;;;;;;;5064943;28;20470;-83
2023/08/21 10:57:37;;;;;;;5.20;4.80;;;;;;;;;;5081694;28;20447;-84
2023/08/21 11:00:11;;;;;;;7.15;4.32;;;;;;;;;;5091598;28;20386;-83
2023/08/21 11:02:38;;;;;;;4.47;4.07;;;;;;;;;;5073207;28;20413;-84
2023/08/21 11:05:05;;;;;;;5.20;4.72;;;;;;;;;;5089794;28;20393;-84
2023/08/21 11:07:31;;;;;;;5.03;4.63;;;;;;;;;;5097727;28;20420;-83
2023/08/21 11:09:57;;;;;;;5.75;5.15;;;;;;;;;;5086633;28;20797;-83
2023/08/21 11:12:24;;;;;;;5.70;5.00;;;;;;;;;;5089472;28;20766;-83
2023/08/21 11:14:50;;;;;;;8.90;5.57;;;;;;;;;;5084797;28;20381;-83
2023/08/21 11:17:18;;;;;;;5.40;4.80;;;;;;;;;;5083448;28;20466;-83
2023/08/21 11:19:45;;;;;;;5.03;4.53;;;;;;;;;;5080610;28;20375;-83
2023/08/21 11:22:11;;;;;;;5.55;5.05;;;;;;;;;;5089955;28;20370;-83
2023/08/21 11:24:37;;;;;;;6.55;5.20;;;;;;;;;;5098189;28;20386;-83
2023/08/21 11:27:07;;;;;;;5.28;4.78;;;;;;;;;;5101116;28;20389;-84
2023/08/21 11:29:40;;;;;;;5.20;4.43;;;;;;;;;;5100107;28;20390;-83
2023/08/21 11:32:13;;;;;;;4.70;4.20;;;;;;;;;;5086726;28;20475;-83
2023/08/21 11:34:39;;;;;;;7.43;4.97;;;;;;;;;;5100539;28;20370;-83
2023/08/21 11:37:05;;;;;;;6.10;5.30;;;;;;;;;;5075489;28;20384;-83
2023/08/21 11:39:47;;;;;;;5.27;4.17;;;;;;;;;;5087637;28;20382;-83
2023/08/21 11:42:13;;;;;;;5.68;4.47;;;;;;;;;;5086036;28;20378;-83
2023/08/21 11:44:47;;;;;;;5.63;4.68;;;;;;;;;;5100550;28;20428;-83
2023/08/21 11:47:13;;;;;;;5.25;4.50;;;;;;;;;;5062516;28;20388;-83
2023/08/21 11:49:43;;;;;;;5.55;4.30;;;;;;;;;;5091427;28;20457;-84
2023/08/21 11:52:09;;;;;;;4.93;3.85;;;;;;;;;;5082875;28;20414;-83
2023/08/21 11:54:36;;;;;;;5.47;4.67;;;;;;;;;;5083342;28;20383;-83
2023/08/21 11:57:06;;;;;;;7.13;3.97;;;;;;;;;;5085028;28;20399;-84
2023/08/21 11:59:32;;;;;;;5.40;3.95;;;;;;;;;;5087824;28;20510;-83
2023/08/21 12:01:58;;;;;;;5.87;4.23;;;;;;;;;;5098793;28;20610;-83
2023/08/21 12:04:24;;;;;;;7.13;4.70;;;;;;;;;;5086897;28;20374;-84
2023/08/21 12:06:50;;;;;;;5.53;3.83;;;;;;;;;;5099575;28;20374;-83
2023/08/21 12:09:18;;;;;;;5.23;3.70;;;;;;;;;;5084379;28;20473;-83
2023/08/21 12:11:45;;;;;;;6.17;3.30;;;;;;;;;;5082115;28;20430;-83
2023/08/21 12:14:11;;;;;;;7.25;4.00;;;;;;;;;;5078869;28;20371;-83
2023/08/21 12:16:37;;;;;;;3.80;3.47;;;;;;;;;;5098346;28;20424;-83
2023/08/21 12:19:03;;;;;;;6.40;3.83;;;;;;;;;;5084449;28;20376;-83
2023/08/21 12:21:30;;;;;;;6.68;3.80;;;;;;;;;;5083684;28;20402;-84
2023/08/21 12:23:56;;;;;;;3.90;3.50;;;;;;;;;;5089114;28;20376;-83
2023/08/21 12:26:23;;;;;;;4.60;3.75;;;;;;;;;;5090534;28;20410;-83
2023/08/21 12:28:49;;;;;;;5.18;3.70;;;;;;;;;;5099926;28;20437;-83
2023/08/21 12:31:15;;;;;;;5.55;4.10;;;;;;;;;;5099713;28;20409;-83
2023/08/21 12:33:41;;;;;;;4.40;4.00;;;;;;;;;;5093174;28;20441;-84
2023/08/21 12:36:10;;;;;;;4.67;3.67;;;;;;;;;;5090336;28;20534;-83
2023/08/21 12:38:36;;;;;;;4.27;3.87;;;;;;;;;;5098606;28;20477;-83
2023/08/21 12:41:02;;;;;;;4.43;4.00;;;;;;;;;;5099076;28;20406;-83
2023/08/21 12:43:28;;;;;;;5.07;3.90;;;;;;;;;;5099723;28;20382;-84
2023/08/21 12:45:54;;;;;;;4.20;3.80;;;;;;;;;;5099077;28;20381;-84
2023/08/21 12:48:20;;;;;;;6.13;3.80;;;;;;;;;;5099006;28;20385;-83
2023/08/21 12:50:47;;;;;;;4.60;4.20;;;;;;;;;;5078824;28;20420;-83
2023/08/21 12:53:13;;;;;;;6.13;4.05;;;;;;;;;;5089181;28;20378;-84
2023/08/21 12:55:39;;;;;;;4.47;3.80;;;;;;;;;;5098643;28;20382;-83
2023/08/21 12:58:05;;;;;;;6.80;3.80;;;;;;;;;;5079831;28;20455;-83
2023/08/21 13:00:32;;;;;;;5.25;3.90;;;;;;;;;;5081992;28;20430;-83
2023/08/21 13:02:58;;;;;;;7.20;3.67;;;;;;;;;;5090102;28;20430;-84
2023/08/21 13:05:24;;;;;;;4.53;3.40;;;;;;;;;;5094478;28;20392;-83
2023/08/21 13:07:50;;;;;;;4.65;3.95;;;;;;;;;;5098852;28;20378;-83
2023/08/21 13:10:16;;;;;;;5.50;4.00;;;;;;;;;;5089882;28;20404;-83
2023/08/21 13:12:42;;;;;;;4.65;3.72;;;;;;;;;;5094041;28;20387;-83
2023/08/21 13:15:08;;;;;;;4.47;3.65;;;;;;;;;;5072966;28;20426;-83
2023/08/21 13:17:35;;;;;;;5.47;4.83;;;;;;;;;;5091640;28;20388;-84
2023/08/21 13:20:01;;;;;;;5.47;3.75;;;;;;;;;;5083952;28;20839;-83
2023/08/21 13:22:27;;;;;;;7.10;3.50;;;;;;;;;;5087331;28;20375;-83
2023/08/21 13:24:53;;;;;;;5.55;3.45;;;;;;;;;;5096236;28;20928;-83
2023/08/21 13:27:19;;;;;;;4.43;3.40;;;;;;;;;;5098668;28;20463;-84
2023/08/21 13:29:46;;;;;;;5.95;3.88;;;;;;;;;;5093968;28;20382;-84
2023/08/21 13:32:12;;;;;;;4.05;3.65;;;;;;;;;;5085867;28;20413;-83
2023/08/21 13:34:38;;;;;;;6.38;3.72;;;;;;;;;;5083808;28;20372;-83
2023/08/21 13:37:04;;;;;;;6.93;4.07;;;;;;;;;;5092445;28;20381;-83
2023/08/21 13:39:30;;;;;;;9.63;3.80;;;;;;;;;;5081606;28;20395;-83
2023/08/21 13:41:57;;;;;;;4.03;3.50;;;;;;;;;;5092199;28;20441;-83
2023/08/21 13:44:23;;;;;;;4.13;3.30;;;;;;;;;;5088723;28;20472;-83
2023/08/21 13:46:49;;;;;;;5.40;3.45;;;;;;;;;;5097942;28;20410;-83
2023/08/21 13:49:15;;;;;;;6.25;3.60;;;;;;;;;;5097434;28;20884;-83
2023/08/21 13:51:41;;;;;;;4.27;3.33;;;;;;;;;;5093144;28;20428;-84
2023/08/21 13:54:08;;;;;;;5.18;3.65;;;;;;;;;;5098478;28;20460;-83
2023/08/21 13:56:34;;;;;;;8.00;3.78;;;;;;;;;;5092133;28;20450;-83
2023/08/21 13:59:00;;;;;;;3.40;3.10;;;;;;;;;;5090797;28;20390;-84
2023/08/21 14:01:26;;;;;;;5.03;3.72;;;;;;;;;;5069854;28;20384;-84
2023/08/21 14:03:52;;;;;;;5.30;3.38;;;;;;;;;;5091588;28;20401;-84
2023/08/21 14:06:18;;;;;;;4.60;3.63;;;;;;;;;;5098113;28;20382;-84
2023/08/21 14:08:44;;;;;;;3.57;3.27;;;;;;;;;;5081195;28;20881;-83
2023/08/21 14:11:10;;;;;;;4.65;3.55;;;;;;;;;;5080482;28;20404;-84
2023/08/21 14:13:36;;;;;;;5.28;3.55;;;;;;;;;;5098256;28;20412;-83
2023/08/21 14:16:02;;;;;;;5.88;3.75;;;;;;;;;;5097966;28;20378;-83
2023/08/21 14:18:28;;;;;;;4.00;3.53;;;;;;;;;;5098015;28;20390;-84
2023/08/21 14:20:54;;;;;;;5.20;3.67;;;;;;;;;;5098148;28;20404;-84
2023/08/21 14:23:20;;;;;;;4.20;3.80;;;;;;;;;;5098676;28;20863;-83
2023/08/21 14:25:46;;;;;;;5.25;3.40;;;;;;;;;;5089089;28;20388;-84
2023/08/21 14:28:13;;;;;;;3.97;3.20;;;;;;;;;;5098191;28;20395;-84
2023/08/21 14:30:39;;;;;;;5.00;3.35;;;;;;;;;;5097856;28;20404;-84
2023/08/21 14:33:05;;;;;;;4.47;3.10;;;;;;;;;;5082906;28;20415;-83
2023/08/21 14:35:31;;;;;;;4.37;3.00;;;;;;;;;;5094784;28;20776;-83